Time;durP1;ratioP1;P1;durP2;ratioP2;P2;SDS_P1;SDS_P2;PMS_P1;PMS_P2;Temp;Humidity;BMP_temperature;BMP_pressure;BME280_temperature;BME280_humidity;BME280_pressure;Samples;Min_cycle;Max_cycle;Signal;HPM_P1;HPM_P2
2021/01/08 00:02:21;;;;;;;0.20;0.20;;;;;;;1.78;82.08;98703.79;1743852;80;21432;-56
2021/01/08 00:04:49;;;;;;;0.20;0.20;;;;;;;1.76;82.02;98711.78;1743051;80;21245;-59
2021/01/08 00:07:16;;;;;;;0.40;0.27;;;;;;;1.76;82.08;98713.56;1740453;80;21221;-58
2021/01/08 00:12:20;;;;;;;0.23;0.20;;;;;;;1.78;81.97;98712.62;1871245;75;26836;-59
2021/01/08 00:14:47;;;;;;;0.30;0.20;;;;;;;1.77;81.88;98725.92;1842900;76;21191;-59
2021/01/08 00:17:14;;;;;;;0.20;0.10;;;;;;;1.79;81.76;98730.70;1850071;76;21387;-57
2021/01/08 00:19:42;;;;;;;0.33;0.20;;;;;;;1.78;81.44;98723.69;1844364;76;21436;-58
2021/01/08 00:22:09;;;;;;;0.17;0.10;;;;;;;1.79;81.46;98726.27;1839439;76;21249;-59
2021/01/08 00:24:36;;;;;;;0.30;0.20;;;;;;;1.79;81.10;98727.59;1842186;76;21174;-60
2021/01/08 00:27:04;;;;;;;0.20;0.20;;;;;;;1.78;81.11;98718.38;1847174;76;21293;-59
2021/01/08 00:29:31;;;;;;;0.20;0.10;;;;;;;1.75;81.09;98718.00;1844772;76;22168;-59
2021/01/08 00:31:59;;;;;;;0.20;0.10;;;;;;;1.74;81.06;98724.67;1842135;76;21063;-59
2021/01/08 00:34:26;;;;;;;0.27;0.10;;;;;;;1.73;81.07;98722.93;1804999;78;21054;-59
2021/01/08 00:36:55;;;;;;;1.03;0.20;;;;;;;1.72;81.09;98734.45;1775980;78;21195;-58
2021/01/08 00:39:24;;;;;;;0.97;0.20;;;;;;;1.77;81.14;98733.88;1807887;78;21200;-58
2021/01/08 00:41:51;;;;;;;0.43;0.30;;;;;;;1.78;81.03;98736.50;1799110;77;21851;-59
2021/01/08 00:44:19;;;;;;;0.20;0.20;;;;;;;1.78;80.97;98739.16;1782328;78;22075;-59
2021/01/08 00:46:47;;;;;;;0.30;0.20;;;;;;;1.78;81.01;98730.32;1780197;78;21594;-59
2021/01/08 00:49:15;;;;;;;0.20;0.20;;;;;;;1.78;80.84;98740.48;1783423;78;21085;-58
2021/01/08 00:51:42;;;;;;;0.20;0.17;;;;;;;1.78;80.69;98736.95;1782447;78;21192;-58
2021/01/08 00:54:09;;;;;;;0.20;0.13;;;;;;;1.77;80.69;98740.06;1782807;78;21202;-59
2021/01/08 00:56:37;;;;;;;0.20;0.17;;;;;;;1.79;80.57;98752.80;1751083;80;21201;-59
2021/01/08 00:59:06;;;;;;;0.20;0.20;;;;;;;1.80;80.35;98751.02;1755356;79;21265;-59
2021/01/08 01:01:35;;;;;;;0.20;0.20;;;;;;;1.78;80.26;98751.09;1760860;79;21119;-59
2021/01/08 01:04:03;;;;;;;0.67;0.17;;;;;;;1.78;80.16;98767.47;1758384;79;21585;-59
2021/01/08 01:06:31;;;;;;;0.20;0.20;;;;;;;1.78;80.23;98768.80;1760871;79;21592;-59
2021/01/08 01:08:59;;;;;;;0.30;0.17;;;;;;;1.80;80.35;98765.61;1760193;79;21488;-59
2021/01/08 01:11:27;;;;;;;0.30;0.20;;;;;;;1.81;80.41;98775.31;1758954;79;21182;-59
2021/01/08 01:13:55;;;;;;;0.40;0.20;;;;;;;1.81;80.51;98773.98;1726554;81;21195;-58
2021/01/08 01:16:24;;;;;;;0.20;0.20;;;;;;;1.81;80.63;98783.27;1741265;80;21203;-58
2021/01/08 01:18:53;;;;;;;0.20;0.20;;;;;;;1.83;80.68;98782.78;1769926;79;22216;-58
2021/01/08 01:21:21;;;;;;;0.30;0.20;;;;;;;1.80;80.72;98777.55;1725186;81;22011;-58
2021/01/08 01:23:48;;;;;;;0.40;0.27;;;;;;;1.78;80.68;98780.73;1758614;79;21188;-59
2021/01/08 01:26:15;;;;;;;0.30;0.27;;;;;;;1.77;80.71;98782.97;1766849;79;21447;-58
2021/01/08 01:28:42;;;;;;;0.20;0.20;;;;;;;1.79;80.68;98780.66;1767771;79;21269;-59
2021/01/08 01:31:10;;;;;;;0.40;0.20;;;;;;;1.80;80.53;98786.84;1766851;79;22016;-59
2021/01/08 01:33:37;;;;;;;0.30;0.20;;;;;;;1.84;80.59;98784.53;1768386;79;21005;-58
2021/01/08 01:36:07;;;;;;;0.40;0.30;;;;;;;1.86;80.44;98786.69;1771458;79;21748;-58
2021/01/08 01:38:35;;;;;;;0.83;0.30;;;;;;;1.87;80.46;98780.47;1770456;79;21104;-58
2021/01/08 01:41:03;;;;;;;0.40;0.30;;;;;;;1.88;80.52;98786.16;1771316;79;21132;-59
2021/01/08 01:43:31;;;;;;;0.50;0.40;;;;;;;1.89;80.59;98794.54;1768674;79;21194;-58
2021/01/08 01:45:58;;;;;;;0.60;0.60;;;;;;;1.90;80.62;98793.63;1768833;79;21125;-59
2021/01/08 01:48:25;;;;;;;0.70;0.50;;;;;;;1.92;80.65;98790.94;1771074;79;21129;-59
2021/01/08 01:50:52;;;;;;;0.90;0.33;;;;;;;1.92;80.63;98796.25;1731638;79;21090;-58
2021/01/08 01:53:20;;;;;;;0.90;0.40;;;;;;;1.93;80.66;98788.25;1729239;79;21161;-59
2021/01/08 01:55:47;;;;;;;0.57;0.40;;;;;;;1.96;80.53;98793.45;1735878;80;22228;-59
2021/01/08 01:58:17;;;;;;;0.47;0.37;;;;;;;1.96;80.51;98792.12;1752287;80;21142;-59
2021/01/08 02:00:44;;;;;;;0.50;0.40;;;;;;;1.96;80.49;98808.53;1749557;80;21135;-59
2021/01/08 02:03:26;;;;;;;0.70;0.33;;;;;;;1.92;80.22;98803.75;1751296;80;21079;-58
2021/01/08 02:06:01;;;;;;;0.30;0.20;;;;;;;1.89;80.16;98798.06;1756018;79;21410;-58
2021/01/08 02:08:28;;;;;;;;;;;;;;;1.90;80.19;98797.16;1759427;79;22110;-58
2021/01/08 02:11:10;;;;;;;0.40;0.30;;;;;;;1.94;80.07;98800.61;1755351;79;20453;-58
2021/01/08 02:13:48;;;;;;;1.20;1.07;;;;;;;1.95;80.14;98808.11;1739510;80;21109;-60
2021/01/08 02:16:15;;;;;;;0.50;0.40;;;;;;;1.97;80.15;98813.77;1737889;80;21508;-58
2021/01/08 02:18:45;;;;;;;0.60;0.50;;;;;;;2.00;80.19;98815.02;1784625;78;21099;-59
2021/01/08 02:21:17;;;;;;;0.60;0.50;;;;;;;2.00;80.21;98820.33;1739179;80;21368;-59
2021/01/08 02:23:55;;;;;;;0.50;0.30;;;;;;;2.00;80.21;98816.80;1753646;79;21533;-59
2021/01/08 02:26:22;;;;;;;0.67;0.40;;;;;;;1.97;80.21;98812.44;1717439;79;21178;-59
2021/01/08 02:28:49;;;;;;;0.47;0.40;;;;;;;1.96;80.20;98821.31;1751562;79;21190;-58
2021/01/08 02:31:16;;;;;;;0.90;0.40;;;;;;;1.95;80.28;98821.38;1756870;79;21198;-59
2021/01/08 02:33:44;;;;;;;0.40;0.30;;;;;;;1.97;80.34;98827.04;1752193;79;21387;-61
2021/01/08 02:36:11;;;;;;;0.50;0.40;;;;;;;1.99;80.37;98831.85;1755209;79;21572;-61
2021/01/08 02:38:38;;;;;;;0.43;0.40;;;;;;;2.03;80.36;98831.33;1752707;79;21191;-60
2021/01/08 02:41:06;;;;;;;0.40;0.37;;;;;;;2.03;80.32;98827.34;1754289;80;21210;-61
2021/01/08 02:43:34;;;;;;;0.30;0.30;;;;;;;2.03;80.25;98830.87;1756636;79;21183;-60
2021/01/08 02:46:02;;;;;;;0.30;0.30;;;;;;;2.03;80.17;98832.65;1756071;79;21363;-60
2021/01/08 02:48:30;;;;;;;0.40;0.30;;;;;;;2.02;80.20;98830.45;1754557;79;21115;-60
2021/01/08 02:50:58;;;;;;;0.40;0.27;;;;;;;2.03;80.23;98833.98;1753064;80;21187;-61
2021/01/08 02:53:26;;;;;;;0.30;0.30;;;;;;;2.05;80.23;98826.81;1755609;79;21617;-60
2021/01/08 02:56:13;;;;;;;0.30;0.30;;;;;;;2.06;80.24;98828.11;1755526;79;21593;-61
2021/01/08 02:58:41;;;;;;;0.50;0.30;;;;;;;2.06;80.02;98845.81;1753136;79;22608;-60
2021/01/08 03:01:08;;;;;;;0.40;0.30;;;;;;;2.04;80.06;98837.89;1753308;79;21505;-60
2021/01/08 03:03:35;;;;;;;0.40;0.30;;;;;;;2.01;79.94;98843.30;1755193;79;21122;-61
2021/01/08 03:06:03;;;;;;;0.30;0.30;;;;;;;2.00;79.83;98848.66;1723731;80;21203;-60
2021/01/08 03:08:31;;;;;;;0.40;0.30;;;;;;;1.99;79.89;98849.56;1751460;79;21194;-60
2021/01/08 03:10:59;;;;;;;0.30;0.30;;;;;;;1.99;79.87;98860.17;1756007;79;22271;-59
2021/01/08 03:13:28;;;;;;;3.17;0.40;;;;;;;2.00;79.96;98853.96;1755260;79;21159;-60
2021/01/08 03:15:55;;;;;;;0.40;0.40;;;;;;;2.03;79.92;98860.52;1754654;79;21549;-61
2021/01/08 03:18:24;;;;;;;0.37;0.30;;;;;;;2.06;79.85;98858.63;1751993;79;21218;-61
2021/01/08 03:20:51;;;;;;;0.60;0.50;;;;;;;2.08;79.79;98863.91;1755094;79;21178;-60
2021/01/08 03:23:19;;;;;;;0.50;0.40;;;;;;;2.05;79.79;98864.85;1752569;79;21391;-61
2021/01/08 03:25:46;;;;;;;0.40;0.30;;;;;;;2.05;79.76;98874.59;1752350;79;21210;-59
2021/01/08 03:28:13;;;;;;;0.50;0.50;;;;;;;2.05;79.74;98871.94;1755159;80;21581;-61
2021/01/08 03:30:41;;;;;;;0.50;0.30;;;;;;;2.04;79.77;98881.69;1753291;80;21220;-61
2021/01/08 03:33:08;;;;;;;0.50;0.40;;;;;;;2.04;79.79;98876.38;1755681;79;21198;-61
2021/01/08 03:35:36;;;;;;;0.60;0.40;;;;;;;2.06;79.83;98881.20;1755621;80;21210;-61
2021/01/08 03:38:03;;;;;;;0.50;0.40;;;;;;;2.08;79.84;98883.81;1756321;79;21637;-61
2021/01/08 03:40:30;;;;;;;0.60;0.50;;;;;;;2.08;79.79;98884.69;1756097;79;21222;-62
2021/01/08 03:42:57;;;;;;;0.77;0.40;;;;;;;2.07;79.80;98879.41;1758309;79;21205;-61
2021/01/08 03:45:24;;;;;;;0.43;0.40;;;;;;;2.06;79.76;98876.34;1754490;80;21225;-61
2021/01/08 03:47:51;;;;;;;0.57;0.37;;;;;;;2.06;79.81;98880.33;1754795;79;22032;-60
2021/01/08 03:50:19;;;;;;;0.67;0.47;;;;;;;2.06;79.78;98884.30;1753784;79;21237;-60
2021/01/08 03:52:46;;;;;;;0.60;0.47;;;;;;;2.09;79.75;98890.41;1755040;79;21485;-61
2021/01/08 03:55:13;;;;;;;0.57;0.47;;;;;;;2.09;79.67;98887.76;1753099;79;21277;-61
2021/01/08 03:57:40;;;;;;;0.97;0.60;;;;;;;2.09;79.64;98894.84;1756475;79;23231;-61
2021/01/08 04:00:09;;;;;;;0.60;0.40;;;;;;;2.09;79.61;98895.72;1755132;80;23500;-60
2021/01/08 04:02:36;;;;;;;0.80;0.50;;;;;;;2.10;79.58;98896.59;1751756;80;21668;-61
2021/01/08 04:05:05;;;;;;;0.60;0.43;;;;;;;2.11;79.57;98900.54;1752565;80;21199;-60
2021/01/08 04:07:33;;;;;;;2.03;0.43;;;;;;;2.12;79.43;98902.28;1782106;78;21188;-60
2021/01/08 04:10:00;;;;;;;0.80;0.60;;;;;;;2.12;79.33;98903.61;1782099;78;21203;-60
2021/01/08 04:12:27;;;;;;;0.70;0.60;;;;;;;2.13;79.28;98906.66;1780626;78;21430;-60
2021/01/08 04:14:54;;;;;;;0.70;0.60;;;;;;;2.13;79.40;98905.78;1784063;78;21175;-62
2021/01/08 04:17:21;;;;;;;0.90;0.70;;;;;;;2.13;79.37;98911.09;1781964;78;22202;-61
2021/01/08 04:19:49;;;;;;;1.23;0.80;;;;;;;2.12;79.33;98918.21;1754361;80;21480;-60
2021/01/08 04:22:16;;;;;;;1.47;0.80;;;;;;;2.13;79.38;98916.40;1763545;79;21214;-62
2021/01/08 04:24:43;;;;;;;1.30;0.90;;;;;;;2.15;79.39;98922.55;1761786;79;21744;-60
2021/01/08 04:27:10;;;;;;;1.47;0.83;;;;;;;2.17;79.39;98927.36;1763569;79;21230;-62
2021/01/08 04:29:39;;;;;;;1.83;1.00;;;;;;;2.18;79.35;98930.44;1763462;79;21578;-60
2021/01/08 04:32:08;;;;;;;1.50;1.00;;;;;;;2.17;79.34;98940.19;1765044;79;21134;-60
2021/01/08 04:34:35;;;;;;;1.70;1.50;;;;;;;2.15;79.34;98934.49;1763742;79;21111;-61
2021/01/08 04:37:03;;;;;;;2.13;1.40;;;;;;;2.17;79.34;98945.95;1763613;79;22139;-60
2021/01/08 04:39:30;;;;;;;6.37;1.40;;;;;;;2.17;79.36;98941.52;1764839;79;21131;-61
2021/01/08 04:41:57;;;;;;;3.47;1.67;;;;;;;2.18;79.36;98937.95;1762742;79;21779;-60
2021/01/08 04:44:25;;;;;;;3.00;1.87;;;;;;;2.19;79.42;98940.15;1764324;79;21118;-60
2021/01/08 04:46:52;;;;;;;5.37;2.40;;;;;;;2.19;79.45;98944.13;1763919;79;21820;-61
2021/01/08 04:49:19;;;;;;;4.30;2.57;;;;;;;2.18;79.41;98951.22;1762353;79;21254;-61
2021/01/08 04:51:47;;;;;;;4.83;2.40;;;;;;;2.16;79.44;98958.35;1737139;79;21166;-60
2021/01/08 04:54:14;;;;;;;3.37;2.00;;;;;;;2.15;79.44;98961.04;1712425;79;20984;-61
2021/01/08 04:56:44;;;;;;;2.47;1.63;;;;;;;2.14;79.45;98964.60;1766705;79;21142;-59
2021/01/08 04:59:11;;;;;;;3.00;2.27;;;;;;;2.15;79.43;98964.57;1733522;79;21107;-59
2021/01/08 05:01:39;;;;;;;4.20;2.07;;;;;;;2.15;79.39;98964.57;1766486;79;22337;-60
2021/01/08 05:04:07;;;;;;;4.07;2.33;;;;;;;2.16;79.11;98967.64;1763292;79;21564;-59
2021/01/08 05:06:34;;;;;;;3.87;2.90;;;;;;;2.18;79.19;98959.64;1762762;79;21125;-61
2021/01/08 05:09:01;;;;;;;5.23;3.13;;;;;;;2.18;79.23;98953.00;1764476;79;21111;-60
2021/01/08 05:11:29;;;;;;;6.97;2.70;;;;;;;2.20;79.08;98968.45;1752884;80;21163;-60
2021/01/08 05:14:03;;;;;;;3.97;2.67;;;;;;;2.19;79.01;98959.61;1789103;78;22316;-60
2021/01/08 05:16:31;;;;;;;3.73;2.40;;;;;;;2.18;78.90;98959.19;1749413;80;22087;-60
2021/01/08 05:19:02;;;;;;;4.20;2.73;;;;;;;2.18;78.90;98954.33;1786037;78;21657;-61
2021/01/08 05:21:29;;;;;;;7.17;4.07;;;;;;;2.19;78.93;98962.27;1788788;78;21111;-60
2021/01/08 05:23:58;;;;;;;6.67;4.20;;;;;;;2.21;78.92;98953.77;1789599;78;21100;-60
2021/01/08 05:26:26;;;;;;;8.50;4.57;;;;;;;2.22;78.73;98971.45;1788299;78;22189;-61
2021/01/08 05:29:02;;;;;;;8.30;4.77;;;;;;;2.22;78.74;98974.56;1788076;78;21663;-61
2021/01/08 05:31:31;;;;;;;9.60;5.17;;;;;;;2.19;78.75;98978.20;1790292;78;21510;-60
2021/01/08 05:33:59;;;;;;;8.03;4.87;;;;;;;2.18;78.85;98985.74;1790145;78;21188;-61
2021/01/08 05:36:26;;;;;;;9.20;5.67;;;;;;;2.18;78.86;98984.41;1784316;78;21668;-61
2021/01/08 05:38:58;;;;;;;10.67;5.93;;;;;;;2.19;78.92;98992.80;1785908;78;22074;-59
2021/01/08 05:41:27;;;;;;;11.40;7.03;;;;;;;2.20;78.91;98995.00;1785773;78;21154;-60
2021/01/08 05:43:55;;;;;;;12.03;6.63;;;;;;;2.20;78.84;98992.34;1787769;78;21160;-60
2021/01/08 05:46:28;;;;;;;14.40;7.37;;;;;;;2.17;78.88;99003.03;1785611;78;21092;-60
2021/01/08 05:49:01;;;;;;;12.07;7.10;;;;;;;2.15;78.87;99008.38;1786813;78;21915;-61
2021/01/08 05:51:33;;;;;;;12.77;6.73;;;;;;;2.15;78.90;99009.70;1789917;78;21377;-61
2021/01/08 05:54:00;;;;;;;13.60;7.07;;;;;;;2.16;78.98;99018.09;1792695;78;21178;-59
2021/01/08 05:56:34;;;;;;;12.97;7.53;;;;;;;2.18;78.86;99015.40;1786473;78;21202;-60
2021/01/08 05:59:04;;;;;;;11.70;7.10;;;;;;;2.17;78.86;99019.84;1763898;78;21164;-61
2021/01/08 06:01:32;;;;;;;16.73;9.20;;;;;;;2.18;78.95;99024.69;1793778;78;21422;-61
2021/01/08 06:04:01;;;;;;;18.33;9.87;;;;;;;2.18;78.85;99024.23;1785315;78;21594;-61
2021/01/08 06:06:43;;;;;;;17.53;9.73;;;;;;;2.17;78.77;99028.25;1791289;78;21233;-63
2021/01/08 06:09:14;;;;;;;17.20;9.33;;;;;;;2.12;78.76;99021.75;1785765;78;21166;-60
2021/01/08 06:11:45;;;;;;;17.27;9.13;;;;;;;2.11;78.81;99031.08;1790658;78;21198;-61
2021/01/08 06:14:16;;;;;;;16.13;10.03;;;;;;;2.11;78.88;99045.68;1784437;78;21528;-59
2021/01/08 06:16:45;;;;;;;15.20;7.47;;;;;;;2.13;78.87;99046.03;1780354;78;21211;-61
2021/01/08 06:19:14;;;;;;;14.00;8.47;;;;;;;2.13;78.88;99046.48;1783003;78;21198;-59
2021/01/08 06:21:43;;;;;;;19.87;11.20;;;;;;;2.14;78.94;99059.73;1782965;78;21466;-61
2021/01/08 06:24:25;;;;;;;18.50;11.87;;;;;;;2.14;78.83;99060.18;1742615;80;21536;-59
2021/01/08 06:26:53;;;;;;;19.00;11.10;;;;;;;2.11;78.85;99062.94;1748748;80;21578;-60
2021/01/08 06:29:23;;;;;;;22.40;10.73;;;;;;;2.06;78.89;99067.02;1786681;78;21618;-60
2021/01/08 06:32:13;;;;;;;19.40;10.70;;;;;;;2.04;78.93;99067.50;1785641;78;21155;-60
2021/01/08 06:34:46;;;;;;;18.47;10.50;;;;;;;2.05;78.97;99075.02;1782155;78;21146;-62
2021/01/08 06:37:18;;;;;;;19.43;10.23;;;;;;;2.05;78.97;99077.66;1781057;78;21546;-60
2021/01/08 06:39:45;;;;;;;18.37;11.03;;;;;;;2.07;78.99;99085.14;1787590;78;21470;-60
2021/01/08 06:42:26;;;;;;;15.97;10.43;;;;;;;2.10;78.86;99093.05;1787337;78;21260;-61
2021/01/08 06:44:56;;;;;;;16.67;11.07;;;;;;;2.07;78.75;99086.47;1783641;78;21219;-60
2021/01/08 06:47:24;;;;;;;16.70;9.70;;;;;;;2.05;78.81;99097.58;1784280;78;21254;-61
2021/01/08 06:49:52;;;;;;;18.70;10.10;;;;;;;2.03;78.84;99106.93;1748481;79;21634;-60
2021/01/08 06:52:24;;;;;;;19.43;10.50;;;;;;;2.03;78.83;99102.08;1786807;78;21119;-60
2021/01/08 06:54:54;;;;;;;13.17;7.87;;;;;;;2.02;78.81;99103.86;1785163;78;22635;-61
2021/01/08 06:57:22;;;;;;;14.07;7.90;;;;;;;2.05;78.81;99110.84;1751290;80;21146;-61
2021/01/08 06:59:58;;;;;;;13.27;8.90;;;;;;;2.05;78.72;99117.03;1747000;80;21159;-63
2021/01/08 07:02:25;;;;;;;13.10;8.77;;;;;;;2.05;78.74;99116.16;1756999;80;21480;-62
2021/01/08 07:04:54;;;;;;;19.43;10.30;;;;;;;2.03;78.73;99118.88;1755524;80;21207;-61
2021/01/08 07:07:26;;;;;;;18.70;9.40;;;;;;;2.02;78.66;99119.78;1786000;78;21645;-62
2021/01/08 07:09:56;;;;;;;15.73;8.73;;;;;;;1.96;78.70;99126.54;1786231;78;21220;-61
2021/01/08 07:12:25;;;;;;;14.80;8.57;;;;;;;1.96;78.73;99126.54;1782882;78;21182;-62
2021/01/08 07:14:53;;;;;;;16.43;8.60;;;;;;;1.98;78.68;99130.04;1744943;80;21165;-61
2021/01/08 07:17:31;;;;;;;14.37;8.67;;;;;;;2.00;78.74;99140.63;1762704;79;21183;-60
2021/01/08 07:20:00;;;;;;;13.70;8.33;;;;;;;2.00;78.69;99136.19;1762194;79;21404;-62
2021/01/08 07:22:34;;;;;;;15.83;8.90;;;;;;;2.01;78.75;99133.95;1764635;79;21545;-61
2021/01/08 07:25:05;;;;;;;15.40;9.55;;;;;;;2.03;78.71;99130.82;1765698;79;21110;-60
2021/01/08 07:27:31;;;;;;;16.67;9.83;;;;;;;2.04;78.63;99135.19;1763083;79;21125;-61
2021/01/08 07:30:00;;;;;;;15.97;9.50;;;;;;;2.06;78.55;99139.14;1763093;79;21095;-60
2021/01/08 07:32:37;;;;;;;9.90;6.93;;;;;;;2.08;78.55;99138.66;1763554;79;21684;-60
2021/01/08 07:35:27;;;;;;;14.07;7.90;;;;;;;2.11;78.53;99150.09;1765848;79;21462;-61
2021/01/08 07:38:06;;;;;;;13.00;8.57;;;;;;;2.10;78.24;99149.67;1767436;79;21141;-61
2021/01/08 07:40:37;;;;;;;15.10;8.73;;;;;;;2.09;78.33;99147.05;1767972;79;21083;-60
2021/01/08 07:43:09;;;;;;;14.97;8.70;;;;;;;2.08;78.29;99150.16;1767739;79;21103;-61
2021/01/08 07:45:55;;;;;;;12.67;8.23;;;;;;;2.05;78.29;99162.16;1766826;79;21580;-60
2021/01/08 07:48:38;;;;;;;12.27;7.87;;;;;;;2.03;78.29;99164.45;1764488;79;21165;-61
2021/01/08 07:51:09;;;;;;;14.73;8.40;;;;;;;2.05;78.33;99158.18;1761973;79;21198;-62
2021/01/08 07:56:25;;;;;;;15.73;9.70;;;;;;;2.13;78.25;99161.52;1868092;75;26623;-59
2021/01/08 07:59:05;;;;;;;17.77;10.47;;;;;;;2.12;78.21;99160.27;1844191;76;21331;-59
2021/01/08 08:01:32;;;;;;;11.73;9.07;;;;;;;2.14;78.19;99173.89;1845950;76;21473;-60
2021/01/08 08:04:07;;;;;;;18.10;10.03;;;;;;;2.15;78.05;99178.30;1847584;76;21000;-59
2021/01/08 08:06:36;;;;;;;17.25;9.53;;;;;;;2.13;77.92;99177.45;1848233;76;20982;-61
2021/01/08 08:09:05;;;;;;;13.37;9.03;;;;;;;2.10;77.83;99181.53;1842182;75;21099;-61
2021/01/08 08:11:34;;;;;;;12.20;7.63;;;;;;;2.08;77.84;99184.67;1847829;76;20938;-60
2021/01/08 08:14:04;;;;;;;12.87;8.30;;;;;;;2.09;77.87;99185.09;1842476;76;21193;-60
2021/01/08 08:16:37;;;;;;;13.93;8.33;;;;;;;2.10;77.76;99178.87;1850485;75;20980;-59
2021/01/08 08:19:06;;;;;;;16.07;9.50;;;;;;;2.10;77.70;99178.87;1845819;75;21420;-61
2021/01/08 08:21:34;;;;;;;14.80;9.80;;;;;;;2.10;77.66;99170.91;1850417;75;21158;-60
2021/01/08 08:24:04;;;;;;;17.47;9.93;;;;;;;2.10;77.55;99173.56;1850285;75;21596;-60
2021/01/08 08:26:33;;;;;;;12.93;8.57;;;;;;;2.10;77.56;99163.40;1837712;76;22265;-61
2021/01/08 08:29:14;;;;;;;12.43;7.07;;;;;;;2.12;77.52;99172.20;1842123;76;21167;-61
2021/01/08 08:31:47;;;;;;;11.13;8.07;;;;;;;2.13;77.44;99186.75;1846511;76;21185;-60
2021/01/08 08:34:29;;;;;;;14.13;9.57;;;;;;;2.15;77.30;99190.70;1846277;77;21182;-61
2021/01/08 08:37:08;;;;;;;15.00;8.40;;;;;;;2.13;77.26;99186.75;1837832;76;21171;-61
2021/01/08 08:39:35;;;;;;;15.33;9.40;;;;;;;2.11;77.08;99185.06;1844013;75;21432;-61
2021/01/08 08:42:02;;;;;;;13.90;8.83;;;;;;;2.07;77.06;99188.68;1838013;76;22455;-60
2021/01/08 08:44:31;;;;;;;12.83;7.43;;;;;;;2.07;77.06;99188.68;1848223;76;21603;-61
2021/01/08 08:46:59;;;;;;;11.73;6.47;;;;;;;2.08;76.97;99193.95;1850241;76;21589;-61
2021/01/08 08:49:34;;;;;;;13.53;8.83;;;;;;;2.10;76.89;99197.46;1845594;76;21633;-60
2021/01/08 08:52:02;;;;;;;14.60;9.27;;;;;;;2.14;76.91;99188.50;1810100;77;21324;-61
2021/01/08 08:54:37;;;;;;;11.70;8.20;;;;;;;2.17;76.73;99193.75;1789428;78;21151;-62
2021/01/08 08:57:05;;;;;;;11.50;8.17;;;;;;;2.21;76.62;99194.56;1766912;78;21527;-60
2021/01/08 08:59:44;;;;;;;14.03;8.27;;;;;;;2.23;76.50;99193.59;1789118;78;21630;-61
2021/01/08 09:02:22;;;;;;;10.53;7.50;;;;;;;2.21;76.43;99199.39;1792821;78;22283;-61
2021/01/08 09:04:59;;;;;;;9.63;6.73;;;;;;;2.23;76.35;99186.08;1789953;78;21336;-61
2021/01/08 09:07:47;;;;;;;11.70;7.27;;;;;;;2.26;75.97;99193.53;1792127;78;21185;-61
2021/01/08 09:10:18;;;;;;;9.37;6.67;;;;;;;2.28;76.02;99199.69;1790561;78;21512;-60
2021/01/08 09:12:56;;;;;;;12.37;7.33;;;;;;;2.31;75.79;99199.17;1793721;78;21525;-60
2021/01/08 09:15:31;;;;;;;9.93;6.83;;;;;;;2.28;75.39;99201.47;1790230;78;21470;-61
2021/01/08 09:18:32;;;;;;;;;;;;;;;2.24;75.44;99205.09;1795240;78;21228;-60
2021/01/08 09:21:13;;;;;;;8.40;5.60;;;;;;;2.23;75.40;99208.66;1793912;78;20440;-61
2021/01/08 09:23:43;;;;;;;9.43;5.83;;;;;;;2.25;75.38;99204.19;1793258;78;21186;-60
2021/01/08 09:26:13;;;;;;;7.00;4.60;;;;;;;2.25;75.16;99203.73;1793715;78;21111;-60
2021/01/08 09:28:51;;;;;;;9.97;5.70;;;;;;;2.27;75.08;99215.66;1799978;78;21602;-61
2021/01/08 09:31:41;;;;;;;9.70;5.97;;;;;;;2.30;75.07;99208.08;1792641;78;21194;-59
2021/01/08 09:34:09;;;;;;;7.20;5.53;;;;;;;2.31;75.02;99210.67;1787815;78;21228;-62
2021/01/08 09:36:38;;;;;;;6.40;5.17;;;;;;;2.32;74.96;99207.56;1793018;78;21188;-60
2021/01/08 09:39:09;;;;;;;7.43;5.13;;;;;;;2.34;74.80;99205.75;1786984;78;21210;-60
2021/01/08 09:41:38;;;;;;;7.63;5.10;;;;;;;2.34;74.78;99199.98;1793375;78;21187;-61
2021/01/08 09:44:08;;;;;;;8.67;4.47;;;;;;;2.34;74.45;99218.58;1794592;78;21213;-62
2021/01/08 09:46:58;;;;;;;4.67;3.50;;;;;;;2.32;74.14;99214.20;1792839;78;21254;-62
2021/01/08 09:49:27;;;;;;;6.80;5.03;;;;;;;2.28;74.11;99207.66;1788072;78;21180;-60
2021/01/08 09:52:01;;;;;;;11.80;5.80;;;;;;;2.26;73.83;99209.92;1793484;78;21204;-59
2021/01/08 09:54:45;;;;;;;8.18;4.78;;;;;;;2.23;73.76;99208.20;1792169;78;21123;-61
2021/01/08 09:57:30;;;;;;;7.37;4.13;;;;;;;2.23;73.72;99211.31;1789493;78;21378;-59
2021/01/08 10:00:04;;;;;;;6.27;3.80;;;;;;;2.23;73.67;99210.86;1784566;79;21329;-62
2021/01/08 10:02:46;;;;;;;5.37;3.83;;;;;;;2.25;73.65;99205.52;1783167;78;21186;-61
2021/01/08 10:05:29;;;;;;;7.73;4.23;;;;;;;2.27;73.58;99212.55;1784033;79;21170;-61
2021/01/08 10:07:57;;;;;;;7.67;5.13;;;;;;;2.28;73.20;99206.78;1752310;79;21214;-60
2021/01/08 10:10:37;;;;;;;5.43;3.47;;;;;;;2.27;73.18;99209.02;1756566;79;21400;-61
2021/01/08 10:13:07;;;;;;;6.90;4.00;;;;;;;2.23;72.87;99217.95;1763633;79;21837;-63
2021/01/08 10:15:47;;;;;;;7.43;3.70;;;;;;;2.18;72.89;99214.09;1760568;79;21644;-60
2021/01/08 10:18:27;;;;;;;4.83;3.67;;;;;;;2.17;73.02;99211.45;1788587;78;21206;-61
2021/01/08 10:21:09;;;;;;;5.93;4.20;;;;;;;2.18;73.08;99211.88;1784178;78;21166;-61
2021/01/08 10:23:40;;;;;;;8.63;4.43;;;;;;;2.19;73.03;99212.30;1785228;78;21638;-61
2021/01/08 10:26:17;;;;;;;9.00;5.37;;;;;;;2.22;73.16;99212.21;1779202;78;22020;-61
2021/01/08 10:28:49;;;;;;;7.37;4.13;;;;;;;2.23;72.87;99213.97;1786743;78;21206;-60
2021/01/08 10:31:19;;;;;;;4.33;3.00;;;;;;;2.24;72.91;99221.02;1783786;78;21173;-60
2021/01/08 10:33:46;;;;;;;7.10;4.10;;;;;;;2.25;72.91;99217.47;1783859;78;21182;-60
2021/01/08 10:36:14;;;;;;;3.87;3.20;;;;;;;2.27;72.79;99211.67;1784814;78;22119;-59
2021/01/08 10:38:43;;;;;;;5.87;3.00;;;;;;;2.31;72.56;99213.78;1784859;78;21174;-59
2021/01/08 10:41:17;;;;;;;4.07;3.30;;;;;;;2.31;72.25;99211.13;1759528;79;21246;-59
2021/01/08 10:43:47;;;;;;;6.70;4.63;;;;;;;2.30;72.07;99209.41;1761469;79;21123;-59
2021/01/08 10:46:14;;;;;;;4.93;3.63;;;;;;;2.31;72.02;99209.34;1760739;79;21012;-60
2021/01/08 10:48:42;;;;;;;5.47;3.80;;;;;;;2.31;72.02;99211.13;1761899;80;21221;-59
2021/01/08 10:51:10;;;;;;;5.77;3.57;;;;;;;2.31;71.71;99209.34;1757183;79;21132;-60
2021/01/08 10:53:38;;;;;;;6.03;3.40;;;;;;;2.28;71.72;99212.97;1759820;79;21434;-58
2021/01/08 10:56:06;;;;;;;5.20;3.63;;;;;;;2.26;71.59;99211.25;1780413;78;21091;-60
2021/01/08 11:01:09;;;;;;;6.67;6.07;;;;;;;2.25;71.43;99202.41;1850972;75;27725;-59
2021/01/08 11:06:19;;;;;;;6.43;3.77;;;;;;;2.34;70.98;99211.06;1807701;77;26765;-62
2021/01/08 11:08:48;;;;;;;5.07;3.60;;;;;;;2.26;70.92;99213.45;1779692;78;20965;-61
2021/01/08 11:11:15;;;;;;;3.73;3.03;;;;;;;2.25;71.02;99214.36;1781716;78;21191;-61
2021/01/08 11:13:43;;;;;;;4.43;3.30;;;;;;;2.24;70.93;99223.23;1780148;78;21620;-62
2021/01/08 11:16:10;;;;;;;4.63;3.40;;;;;;;2.23;71.00;99212.63;1777502;78;20961;-62
2021/01/08 11:18:38;;;;;;;3.77;3.27;;;;;;;2.24;71.06;99221.02;1784247;78;20962;-64
2021/01/08 11:21:05;;;;;;;5.17;3.77;;;;;;;2.25;71.04;99218.79;1779113;78;20954;-62
2021/01/08 11:23:32;;;;;;;5.63;3.37;;;;;;;2.24;70.87;99219.70;1780270;78;21865;-62
2021/01/08 11:26:00;;;;;;;4.17;3.30;;;;;;;2.24;70.70;99222.35;1782338;78;21011;-61
2021/01/08 11:28:27;;;;;;;4.77;3.50;;;;;;;2.19;70.24;99214.51;1780789;78;21392;-62
2021/01/08 11:30:54;;;;;;;6.80;3.50;;;;;;;2.16;70.37;99219.88;1782941;78;21152;-62
2021/01/08 11:33:21;;;;;;;4.13;2.73;;;;;;;2.16;70.48;99229.63;1780962;78;21694;-62
2021/01/08 11:35:49;;;;;;;6.87;4.20;;;;;;;2.16;70.53;99228.30;1777297;78;21795;-62
2021/01/08 11:38:16;;;;;;;3.77;2.60;;;;;;;2.16;70.48;99237.59;1776263;78;21254;-62
2021/01/08 11:40:43;;;;;;;4.27;3.27;;;;;;;2.16;70.40;99234.94;1777313;78;22305;-62
2021/01/08 11:43:10;;;;;;;5.00;2.80;;;;;;;2.16;70.42;99233.16;1758117;79;21595;-62
2021/01/08 11:45:38;;;;;;;6.13;3.67;;;;;;;2.16;70.33;99232.28;1758577;79;21177;-62
2021/01/08 11:48:07;;;;;;;5.83;3.00;;;;;;;2.17;70.28;99241.99;1755924;79;21225;-62
2021/01/08 11:50:35;;;;;;;6.80;4.40;;;;;;;2.19;70.10;99238.41;1728877;79;21191;-61
2021/01/08 11:53:03;;;;;;;5.80;3.73;;;;;;;2.19;69.78;99238.41;1756686;79;21171;-62
2021/01/08 11:55:32;;;;;;;3.80;2.37;;;;;;;2.19;69.42;99248.16;1760494;79;21459;-62
2021/01/08 11:58:01;;;;;;;5.23;3.27;;;;;;;2.17;69.46;99248.63;1756288;79;20996;-62
2021/01/08 12:00:29;;;;;;;5.70;2.50;;;;;;;2.16;69.11;99245.55;1723467;81;21569;-62
2021/01/08 12:02:56;;;;;;;4.00;2.83;;;;;;;2.15;69.02;99249.98;1714578;81;21040;-63
2021/01/08 12:05:23;;;;;;;4.67;3.30;;;;;;;2.15;68.85;99249.11;1717118;81;22769;-62